sensor_id;sensor_type;location;lat;lon;timestamp;P1;durP1;ratioP1;P2;durP2;ratioP2
15155;SDS011;7678;50.058;8.306;2023-06-14T00:00:18;5.77;;;4.33;;
15155;SDS011;7678;50.058;8.306;2023-06-14T00:02:47;4.50;;;3.77;;
15155;SDS011;7678;50.058;8.306;2023-06-14T00:05:15;5.77;;;4.00;;
15155;SDS011;7678;50.058;8.306;2023-06-14T00:07:44;5.70;;;3.67;;
15155;SDS011;7678;50.058;8.306;2023-06-14T00:10:14;6.37;;;4.30;;
15155;SDS011;7678;50.058;8.306;2023-06-14T00:12:46;6.23;;;3.67;;
15155;SDS011;7678;50.058;8.306;2023-06-14T00:15:19;7.47;;;4.53;;
15155;SDS011;7678;50.058;8.306;2023-06-14T00:17:49;4.70;;;3.83;;
15155;SDS011;7678;50.058;8.306;2023-06-14T00:20:18;4.00;;;3.60;;
15155;SDS011;7678;50.058;8.306;2023-06-14T00:22:47;5.60;;;4.10;;
15155;SDS011;7678;50.058;8.306;2023-06-14T00:25:25;7.37;;;3.87;;
15155;SDS011;7678;50.058;8.306;2023-06-14T00:27:57;5.33;;;3.70;;
15155;SDS011;7678;50.058;8.306;2023-06-14T00:30:25;4.97;;;4.10;;
15155;SDS011;7678;50.058;8.306;2023-06-14T00:32:57;4.97;;;4.10;;
15155;SDS011;7678;50.058;8.306;2023-06-14T00:35:25;4.23;;;3.73;;
15155;SDS011;7678;50.058;8.306;2023-06-14T00:37:54;5.07;;;3.13;;
15155;SDS011;7678;50.058;8.306;2023-06-14T00:40:22;4.33;;;3.43;;
15155;SDS011;7678;50.058;8.306;2023-06-14T00:42:50;6.50;;;4.00;;
15155;SDS011;7678;50.058;8.306;2023-06-14T00:45:20;4.37;;;3.70;;
15155;SDS011;7678;50.058;8.306;2023-06-14T00:47:49;4.23;;;3.33;;
15155;SDS011;7678;50.058;8.306;2023-06-14T00:50:19;8.30;;;3.73;;
15155;SDS011;7678;50.058;8.306;2023-06-14T00:52:48;7.20;;;3.70;;
15155;SDS011;7678;50.058;8.306;2023-06-14T00:55:16;4.00;;;3.20;;
15155;SDS011;7678;50.058;8.306;2023-06-14T00:57:45;5.47;;;3.90;;
15155;SDS011;7678;50.058;8.306;2023-06-14T01:00:17;7.40;;;3.90;;
15155;SDS011;7678;50.058;8.306;2023-06-14T01:02:48;6.50;;;4.00;;
15155;SDS011;7678;50.058;8.306;2023-06-14T01:05:17;5.13;;;3.70;;
15155;SDS011;7678;50.058;8.306;2023-06-14T01:08:05;8.17;;;3.67;;
15155;SDS011;7678;50.058;8.306;2023-06-14T01:11:05;7.40;;;3.70;;
15155;SDS011;7678;50.058;8.306;2023-06-14T01:13:43;5.40;;;3.60;;
15155;SDS011;7678;50.058;8.306;2023-06-14T01:16:16;4.60;;;3.60;;
15155;SDS011;7678;50.058;8.306;2023-06-14T01:18:50;5.80;;;3.83;;
15155;SDS011;7678;50.058;8.306;2023-06-14T01:21:23;4.40;;;3.57;;
15155;SDS011;7678;50.058;8.306;2023-06-14T01:23:56;8.63;;;3.90;;
15155;SDS011;7678;50.058;8.306;2023-06-14T01:26:25;6.73;;;3.60;;
15155;SDS011;7678;50.058;8.306;2023-06-14T01:28:55;8.73;;;3.80;;
15155;SDS011;7678;50.058;8.306;2023-06-14T01:31:25;5.07;;;3.37;;
15155;SDS011;7678;50.058;8.306;2023-06-14T01:33:56;6.20;;;3.60;;
15155;SDS011;7678;50.058;8.306;2023-06-14T01:36:24;5.70;;;3.60;;
15155;SDS011;7678;50.058;8.306;2023-06-14T01:38:57;7.23;;;3.93;;
15155;SDS011;7678;50.058;8.306;2023-06-14T01:41:26;5.30;;;3.83;;
15155;SDS011;7678;50.058;8.306;2023-06-14T01:43:57;5.57;;;3.57;;
15155;SDS011;7678;50.058;8.306;2023-06-14T01:46:26;8.47;;;3.63;;
15155;SDS011;7678;50.058;8.306;2023-06-14T01:48:54;6.53;;;3.27;;
15155;SDS011;7678;50.058;8.306;2023-06-14T01:51:22;5.23;;;3.23;;
15155;SDS011;7678;50.058;8.306;2023-06-14T01:53:50;4.57;;;3.47;;
15155;SDS011;7678;50.058;8.306;2023-06-14T01:56:20;6.50;;;3.30;;
15155;SDS011;7678;50.058;8.306;2023-06-14T01:58:48;9.07;;;4.00;;
15155;SDS011;7678;50.058;8.306;2023-06-14T02:01:18;5.10;;;3.40;;
15155;SDS011;7678;50.058;8.306;2023-06-14T02:03:47;7.33;;;3.53;;
15155;SDS011;7678;50.058;8.306;2023-06-14T02:06:17;4.43;;;3.77;;
15155;SDS011;7678;50.058;8.306;2023-06-14T02:08:46;7.37;;;3.70;;
15155;SDS011;7678;50.058;8.306;2023-06-14T02:11:14;5.53;;;3.70;;
15155;SDS011;7678;50.058;8.306;2023-06-14T02:13:45;7.03;;;3.37;;
15155;SDS011;7678;50.058;8.306;2023-06-14T02:16:14;4.03;;;3.63;;
15155;SDS011;7678;50.058;8.306;2023-06-14T02:18:43;7.23;;;3.93;;
15155;SDS011;7678;50.058;8.306;2023-06-14T02:21:11;8.40;;;3.60;;
15155;SDS011;7678;50.058;8.306;2023-06-14T02:23:39;4.80;;;3.30;;
15155;SDS011;7678;50.058;8.306;2023-06-14T02:26:10;3.57;;;3.27;;
15155;SDS011;7678;50.058;8.306;2023-06-14T02:28:38;5.77;;;3.53;;
15155;SDS011;7678;50.058;8.306;2023-06-14T02:31:09;4.63;;;3.57;;
15155;SDS011;7678;50.058;8.306;2023-06-14T02:33:37;4.60;;;3.60;;
15155;SDS011;7678;50.058;8.306;2023-06-14T02:36:05;6.27;;;3.13;;
15155;SDS011;7678;50.058;8.306;2023-06-14T02:38:34;3.60;;;3.30;;
15155;SDS011;7678;50.058;8.306;2023-06-14T02:41:02;5.57;;;3.60;;
15155;SDS011;7678;50.058;8.306;2023-06-14T02:43:30;6.80;;;3.33;;
15155;SDS011;7678;50.058;8.306;2023-06-14T02:45:58;5.17;;;3.40;;
15155;SDS011;7678;50.058;8.306;2023-06-14T02:48:28;4.20;;;3.73;;
15155;SDS011;7678;50.058;8.306;2023-06-14T02:50:56;4.20;;;3.20;;
15155;SDS011;7678;50.058;8.306;2023-06-14T02:53:24;6.77;;;3.47;;
15155;SDS011;7678;50.058;8.306;2023-06-14T02:55:53;6.47;;;3.30;;
15155;SDS011;7678;50.058;8.306;2023-06-14T02:58:23;4.87;;;3.47;;
15155;SDS011;7678;50.058;8.306;2023-06-14T03:00:51;6.07;;;3.37;;
15155;SDS011;7678;50.058;8.306;2023-06-14T03:03:20;7.43;;;3.83;;
15155;SDS011;7678;50.058;8.306;2023-06-14T03:05:52;5.80;;;3.47;;
15155;SDS011;7678;50.058;8.306;2023-06-14T03:08:20;5.27;;;3.70;;
15155;SDS011;7678;50.058;8.306;2023-06-14T03:10:53;5.43;;;3.50;;
15155;SDS011;7678;50.058;8.306;2023-06-14T03:13:22;4.40;;;3.43;;
15155;SDS011;7678;50.058;8.306;2023-06-14T03:15:50;3.80;;;3.17;;
15155;SDS011;7678;50.058;8.306;2023-06-14T03:18:19;4.03;;;3.43;;
15155;SDS011;7678;50.058;8.306;2023-06-14T03:20:54;5.23;;;3.60;;
15155;SDS011;7678;50.058;8.306;2023-06-14T03:23:23;7.10;;;3.67;;
15155;SDS011;7678;50.058;8.306;2023-06-14T03:25:51;7.57;;;3.27;;
15155;SDS011;7678;50.058;8.306;2023-06-14T03:28:20;5.17;;;3.50;;
15155;SDS011;7678;50.058;8.306;2023-06-14T03:30:48;7.57;;;3.83;;
15155;SDS011;7678;50.058;8.306;2023-06-14T03:33:18;8.03;;;4.30;;
15155;SDS011;7678;50.058;8.306;2023-06-14T03:35:48;5.43;;;3.37;;
15155;SDS011;7678;50.058;8.306;2023-06-14T03:38:18;4.87;;;3.40;;
15155;SDS011;7678;50.058;8.306;2023-06-14T03:40:46;6.83;;;3.70;;
15155;SDS011;7678;50.058;8.306;2023-06-14T03:43:14;4.37;;;3.63;;
15155;SDS011;7678;50.058;8.306;2023-06-14T03:45:43;6.57;;;3.37;;
15155;SDS011;7678;50.058;8.306;2023-06-14T03:48:11;4.63;;;3.90;;
15155;SDS011;7678;50.058;8.306;2023-06-14T03:50:40;6.07;;;3.60;;
15155;SDS011;7678;50.058;8.306;2023-06-14T03:53:09;9.03;;;3.73;;
15155;SDS011;7678;50.058;8.306;2023-06-14T03:55:39;6.60;;;3.80;;
15155;SDS011;7678;50.058;8.306;2023-06-14T03:58:10;4.30;;;3.30;;
15155;SDS011;7678;50.058;8.306;2023-06-14T04:00:39;4.90;;;3.30;;
15155;SDS011;7678;50.058;8.306;2023-06-14T04:03:07;6.17;;;3.50;;
15155;SDS011;7678;50.058;8.306;2023-06-14T04:05:36;4.67;;;3.87;;
15155;SDS011;7678;50.058;8.306;2023-06-14T04:08:08;7.90;;;4.03;;
15155;SDS011;7678;50.058;8.306;2023-06-14T04:10:37;4.47;;;3.80;;
15155;SDS011;7678;50.058;8.306;2023-06-14T04:13:06;4.13;;;3.70;;
15155;SDS011;7678;50.058;8.306;2023-06-14T04:15:38;6.37;;;3.40;;
15155;SDS011;7678;50.058;8.306;2023-06-14T04:18:08;3.93;;;3.30;;
15155;SDS011;7678;50.058;8.306;2023-06-14T04:20:36;6.60;;;3.60;;
15155;SDS011;7678;50.058;8.306;2023-06-14T04:23:11;6.50;;;3.60;;
15155;SDS011;7678;50.058;8.306;2023-06-14T04:25:42;4.77;;;3.77;;
15155;SDS011;7678;50.058;8.306;2023-06-14T04:28:13;5.80;;;3.60;;
15155;SDS011;7678;50.058;8.306;2023-06-14T04:30:41;8.60;;;3.77;;
15155;SDS011;7678;50.058;8.306;2023-06-14T04:33:12;7.17;;;4.37;;
15155;SDS011;7678;50.058;8.306;2023-06-14T04:35:41;7.23;;;3.70;;
15155;SDS011;7678;50.058;8.306;2023-06-14T04:38:13;4.13;;;3.50;;
15155;SDS011;7678;50.058;8.306;2023-06-14T04:40:42;7.50;;;4.07;;
15155;SDS011;7678;50.058;8.306;2023-06-14T04:43:10;6.07;;;3.57;;
15155;SDS011;7678;50.058;8.306;2023-06-14T04:45:41;9.90;;;4.00;;
15155;SDS011;7678;50.058;8.306;2023-06-14T04:48:11;5.30;;;3.63;;
15155;SDS011;7678;50.058;8.306;2023-06-14T04:50:40;4.17;;;3.40;;
15155;SDS011;7678;50.058;8.306;2023-06-14T04:53:09;4.73;;;3.63;;
15155;SDS011;7678;50.058;8.306;2023-06-14T04:55:38;5.30;;;3.43;;
15155;SDS011;7678;50.058;8.306;2023-06-14T04:58:06;6.20;;;3.73;;
15155;SDS011;7678;50.058;8.306;2023-06-14T05:00:36;9.23;;;3.57;;
15155;SDS011;7678;50.058;8.306;2023-06-14T05:03:04;5.97;;;3.63;;
15155;SDS011;7678;50.058;8.306;2023-06-14T05:05:33;5.07;;;3.27;;
15155;SDS011;7678;50.058;8.306;2023-06-14T05:08:01;5.73;;;3.70;;
15155;SDS011;7678;50.058;8.306;2023-06-14T05:10:32;7.87;;;3.50;;
15155;SDS011;7678;50.058;8.306;2023-06-14T05:13:01;7.30;;;3.83;;
15155;SDS011;7678;50.058;8.306;2023-06-14T05:15:29;7.60;;;3.83;;
15155;SDS011;7678;50.058;8.306;2023-06-14T05:17:59;4.80;;;3.23;;
15155;SDS011;7678;50.058;8.306;2023-06-14T05:20:29;4.80;;;3.57;;
15155;SDS011;7678;50.058;8.306;2023-06-14T05:22:57;6.50;;;3.43;;
15155;SDS011;7678;50.058;8.306;2023-06-14T05:25:25;6.07;;;3.33;;
15155;SDS011;7678;50.058;8.306;2023-06-14T05:27:54;9.67;;;3.67;;
15155;SDS011;7678;50.058;8.306;2023-06-14T05:30:22;5.33;;;3.50;;
15155;SDS011;7678;50.058;8.306;2023-06-14T05:32:50;5.00;;;3.70;;
15155;SDS011;7678;50.058;8.306;2023-06-14T05:35:20;3.97;;;3.20;;
15155;SDS011;7678;50.058;8.306;2023-06-14T05:37:49;10.10;;;3.87;;
15155;SDS011;7678;50.058;8.306;2023-06-14T05:40:18;4.90;;;3.23;;
15155;SDS011;7678;50.058;8.306;2023-06-14T05:42:47;3.83;;;2.83;;
15155;SDS011;7678;50.058;8.306;2023-06-14T05:45:15;4.73;;;3.13;;
15155;SDS011;7678;50.058;8.306;2023-06-14T05:47:44;3.40;;;2.77;;
15155;SDS011;7678;50.058;8.306;2023-06-14T05:50:12;4.83;;;2.90;;
15155;SDS011;7678;50.058;8.306;2023-06-14T05:52:42;6.43;;;3.00;;
15155;SDS011;7678;50.058;8.306;2023-06-14T05:55:11;4.23;;;2.87;;
15155;SDS011;7678;50.058;8.306;2023-06-14T05:57:40;7.30;;;3.23;;
15155;SDS011;7678;50.058;8.306;2023-06-14T06:00:08;5.03;;;2.90;;
15155;SDS011;7678;50.058;8.306;2023-06-14T06:02:40;6.97;;;2.87;;
15155;SDS011;7678;50.058;8.306;2023-06-14T06:05:10;4.47;;;2.97;;
15155;SDS011;7678;50.058;8.306;2023-06-14T06:07:39;5.10;;;3.10;;
15155;SDS011;7678;50.058;8.306;2023-06-14T06:10:10;9.07;;;2.80;;
15155;SDS011;7678;50.058;8.306;2023-06-14T06:12:39;4.10;;;3.10;;
15155;SDS011;7678;50.058;8.306;2023-06-14T06:15:10;6.33;;;3.07;;
15155;SDS011;7678;50.058;8.306;2023-06-14T06:17:43;3.83;;;2.80;;
15155;SDS011;7678;50.058;8.306;2023-06-14T06:20:21;5.27;;;3.00;;
15155;SDS011;7678;50.058;8.306;2023-06-14T06:22:57;6.50;;;3.33;;
15155;SDS011;7678;50.058;8.306;2023-06-14T06:25:26;8.07;;;3.00;;
15155;SDS011;7678;50.058;8.306;2023-06-14T06:27:54;6.97;;;3.30;;
15155;SDS011;7678;50.058;8.306;2023-06-14T06:30:23;6.17;;;2.63;;
15155;SDS011;7678;50.058;8.306;2023-06-14T06:32:52;5.73;;;3.07;;
15155;SDS011;7678;50.058;8.306;2023-06-14T06:35:24;5.50;;;3.13;;
15155;SDS011;7678;50.058;8.306;2023-06-14T06:37:59;9.53;;;3.13;;
15155;SDS011;7678;50.058;8.306;2023-06-14T06:40:28;3.57;;;2.90;;
15155;SDS011;7678;50.058;8.306;2023-06-14T06:43:01;5.97;;;2.90;;
15155;SDS011;7678;50.058;8.306;2023-06-14T06:45:38;4.17;;;2.90;;
15155;SDS011;7678;50.058;8.306;2023-06-14T06:48:07;7.10;;;2.97;;
15155;SDS011;7678;50.058;8.306;2023-06-14T06:50:37;6.60;;;2.87;;
15155;SDS011;7678;50.058;8.306;2023-06-14T06:53:08;7.57;;;2.70;;
15155;SDS011;7678;50.058;8.306;2023-06-14T06:55:36;4.67;;;2.63;;
15155;SDS011;7678;50.058;8.306;2023-06-14T06:58:04;7.47;;;2.97;;
15155;SDS011;7678;50.058;8.306;2023-06-14T07:00:32;10.03;;;2.93;;
15155;SDS011;7678;50.058;8.306;2023-06-14T07:03:38;5.37;;;3.00;;
15155;SDS011;7678;50.058;8.306;2023-06-14T07:06:06;5.67;;;3.00;;
15155;SDS011;7678;50.058;8.306;2023-06-14T07:08:36;5.00;;;2.60;;
15155;SDS011;7678;50.058;8.306;2023-06-14T07:11:05;4.60;;;2.40;;
15155;SDS011;7678;50.058;8.306;2023-06-14T07:13:33;8.07;;;2.60;;
15155;SDS011;7678;50.058;8.306;2023-06-14T07:16:03;6.37;;;2.70;;
15155;SDS011;7678;50.058;8.306;2023-06-14T07:18:32;3.37;;;2.67;;
15155;SDS011;7678;50.058;8.306;2023-06-14T07:21:01;6.47;;;2.97;;
15155;SDS011;7678;50.058;8.306;2023-06-14T07:23:30;8.50;;;2.80;;
15155;SDS011;7678;50.058;8.306;2023-06-14T07:25:59;2.63;;;2.43;;
15155;SDS011;7678;50.058;8.306;2023-06-14T07:28:28;4.60;;;2.43;;
15155;SDS011;7678;50.058;8.306;2023-06-14T07:30:56;7.63;;;2.43;;
15155;SDS011;7678;50.058;8.306;2023-06-14T07:33:24;6.33;;;2.27;;
15155;SDS011;7678;50.058;8.306;2023-06-14T07:35:53;6.23;;;2.23;;
15155;SDS011;7678;50.058;8.306;2023-06-14T07:38:27;4.43;;;2.30;;
15155;SDS011;7678;50.058;8.306;2023-06-14T07:40:56;2.83;;;2.23;;
15155;SDS011;7678;50.058;8.306;2023-06-14T07:43:26;4.00;;;2.10;;
15155;SDS011;7678;50.058;8.306;2023-06-14T07:45:54;4.77;;;2.37;;
15155;SDS011;7678;50.058;8.306;2023-06-14T07:48:33;6.07;;;2.50;;
15155;SDS011;7678;50.058;8.306;2023-06-14T07:51:02;5.27;;;2.20;;
15155;SDS011;7678;50.058;8.306;2023-06-14T07:53:31;5.23;;;2.53;;
15155;SDS011;7678;50.058;8.306;2023-06-14T07:56:02;5.83;;;2.27;;
15155;SDS011;7678;50.058;8.306;2023-06-14T07:58:32;3.30;;;2.37;;
15155;SDS011;7678;50.058;8.306;2023-06-14T08:01:00;3.17;;;2.30;;
15155;SDS011;7678;50.058;8.306;2023-06-14T08:03:32;5.90;;;2.60;;
15155;SDS011;7678;50.058;8.306;2023-06-14T08:06:01;5.33;;;2.40;;
15155;SDS011;7678;50.058;8.306;2023-06-14T08:08:29;7.93;;;2.93;;
15155;SDS011;7678;50.058;8.306;2023-06-14T08:10:57;5.60;;;2.40;;
15155;SDS011;7678;50.058;8.306;2023-06-14T08:13:25;8.87;;;2.13;;
15155;SDS011;7678;50.058;8.306;2023-06-14T08:15:55;3.87;;;2.30;;
15155;SDS011;7678;50.058;8.306;2023-06-14T08:18:24;2.40;;;2.20;;
15155;SDS011;7678;50.058;8.306;2023-06-14T08:20:53;5.17;;;2.20;;
15155;SDS011;7678;50.058;8.306;2023-06-14T08:23:23;4.53;;;2.63;;
15155;SDS011;7678;50.058;8.306;2023-06-14T08:25:52;2.80;;;2.20;;
15155;SDS011;7678;50.058;8.306;2023-06-14T08:28:20;8.13;;;2.43;;
15155;SDS011;7678;50.058;8.306;2023-06-14T08:30:48;3.47;;;2.20;;
15155;SDS011;7678;50.058;8.306;2023-06-14T08:33:18;4.43;;;2.20;;
15155;SDS011;7678;50.058;8.306;2023-06-14T08:35:46;3.43;;;2.20;;
15155;SDS011;7678;50.058;8.306;2023-06-14T08:38:15;6.30;;;2.40;;
15155;SDS011;7678;50.058;8.306;2023-06-14T08:40:44;2.97;;;2.10;;
15155;SDS011;7678;50.058;8.306;2023-06-14T08:43:15;6.80;;;2.33;;
15155;SDS011;7678;50.058;8.306;2023-06-14T08:45:43;2.33;;;1.60;;
15155;SDS011;7678;50.058;8.306;2023-06-14T08:51:26;3.37;;;2.30;;
15155;SDS011;7678;50.058;8.306;2023-06-14T08:54:00;4.43;;;2.03;;
15155;SDS011;7678;50.058;8.306;2023-06-14T08:56:30;6.90;;;1.90;;
15155;SDS011;7678;50.058;8.306;2023-06-14T08:59:00;3.40;;;2.07;;
15155;SDS011;7678;50.058;8.306;2023-06-14T09:01:33;3.57;;;2.00;;
15155;SDS011;7678;50.058;8.306;2023-06-14T09:04:04;8.47;;;1.93;;
15155;SDS011;7678;50.058;8.306;2023-06-14T09:06:32;6.23;;;1.87;;
15155;SDS011;7678;50.058;8.306;2023-06-14T09:09:03;5.23;;;2.10;;
15155;SDS011;7678;50.058;8.306;2023-06-14T09:11:31;2.60;;;2.07;;
15155;SDS011;7678;50.058;8.306;2023-06-14T09:14:00;5.23;;;2.10;;
15155;SDS011;7678;50.058;8.306;2023-06-14T09:16:31;2.13;;;1.83;;
15155;SDS011;7678;50.058;8.306;2023-06-14T09:19:00;2.50;;;1.80;;
15155;SDS011;7678;50.058;8.306;2023-06-14T09:21:31;1.97;;;1.73;;
15155;SDS011;7678;50.058;8.306;2023-06-14T09:24:04;3.23;;;1.70;;
15155;SDS011;7678;50.058;8.306;2023-06-14T09:26:33;3.70;;;1.73;;
15155;SDS011;7678;50.058;8.306;2023-06-14T09:29:08;1.97;;;1.77;;
15155;SDS011;7678;50.058;8.306;2023-06-14T09:31:37;4.63;;;1.80;;
15155;SDS011;7678;50.058;8.306;2023-06-14T09:34:06;7.80;;;1.70;;
15155;SDS011;7678;50.058;8.306;2023-06-14T09:36:36;5.50;;;1.97;;
15155;SDS011;7678;50.058;8.306;2023-06-14T09:39:04;2.87;;;1.37;;
15155;SDS011;7678;50.058;8.306;2023-06-14T09:41:36;2.00;;;1.80;;
15155;SDS011;7678;50.058;8.306;2023-06-14T09:44:10;4.77;;;1.80;;
15155;SDS011;7678;50.058;8.306;2023-06-14T09:46:46;5.50;;;2.00;;
15155;SDS011;7678;50.058;8.306;2023-06-14T09:49:39;6.63;;;2.00;;
15155;SDS011;7678;50.058;8.306;2023-06-14T09:52:09;2.87;;;2.13;;
15155;SDS011;7678;50.058;8.306;2023-06-14T09:54:41;4.37;;;1.97;;
15155;SDS011;7678;50.058;8.306;2023-06-14T09:57:13;3.60;;;1.73;;
15155;SDS011;7678;50.058;8.306;2023-06-14T09:59:42;4.10;;;1.97;;
15155;SDS011;7678;50.058;8.306;2023-06-14T10:02:13;9.63;;;2.30;;
15155;SDS011;7678;50.058;8.306;2023-06-14T10:04:50;2.07;;;1.87;;
15155;SDS011;7678;50.058;8.306;2023-06-14T10:07:28;2.40;;;1.60;;
15155;SDS011;7678;50.058;8.306;2023-06-14T10:09:59;2.53;;;1.47;;
15155;SDS011;7678;50.058;8.306;2023-06-14T10:12:28;2.67;;;1.70;;
15155;SDS011;7678;50.058;8.306;2023-06-14T10:14:57;5.03;;;1.73;;
15155;SDS011;7678;50.058;8.306;2023-06-14T10:17:28;1.80;;;1.50;;
15155;SDS011;7678;50.058;8.306;2023-06-14T10:20:15;3.80;;;1.77;;
15155;SDS011;7678;50.058;8.306;2023-06-14T10:22:53;6.63;;;1.50;;
15155;SDS011;7678;50.058;8.306;2023-06-14T10:25:30;3.00;;;1.50;;
15155;SDS011;7678;50.058;8.306;2023-06-14T10:28:02;2.07;;;1.90;;
15155;SDS011;7678;50.058;8.306;2023-06-14T10:30:54;1.43;;;1.33;;
15155;SDS011;7678;50.058;8.306;2023-06-14T10:33:30;1.50;;;1.40;;
15155;SDS011;7678;50.058;8.306;2023-06-14T10:38:58;1.73;;;1.50;;
15155;SDS011;7678;50.058;8.306;2023-06-14T10:41:34;3.23;;;2.00;;
15155;SDS011;7678;50.058;8.306;2023-06-14T10:47:01;1.93;;;1.20;;
15155;SDS011;7678;50.058;8.306;2023-06-14T10:49:39;2.43;;;1.43;;
15155;SDS011;7678;50.058;8.306;2023-06-14T10:52:12;1.87;;;1.57;;
15155;SDS011;7678;50.058;8.306;2023-06-14T10:57:42;2.10;;;1.70;;
15155;SDS011;7678;50.058;8.306;2023-06-14T11:00:17;4.50;;;1.70;;
15155;SDS011;7678;50.058;8.306;2023-06-14T11:02:58;2.53;;;1.70;;
15155;SDS011;7678;50.058;8.306;2023-06-14T11:06:12;2.93;;;1.60;;
15155;SDS011;7678;50.058;8.306;2023-06-14T11:09:06;2.10;;;1.60;;
15155;SDS011;7678;50.058;8.306;2023-06-14T11:11:52;3.33;;;2.00;;
15155;SDS011;7678;50.058;8.306;2023-06-14T11:14:23;2.83;;;1.77;;
15155;SDS011;7678;50.058;8.306;2023-06-14T11:16:51;1.87;;;1.70;;
15155;SDS011;7678;50.058;8.306;2023-06-14T11:19:20;2.53;;;1.60;;
15155;SDS011;7678;50.058;8.306;2023-06-14T11:21:54;2.17;;;1.80;;
15155;SDS011;7678;50.058;8.306;2023-06-14T11:24:22;3.50;;;1.57;;
15155;SDS011;7678;50.058;8.306;2023-06-14T11:26:51;2.30;;;1.60;;
15155;SDS011;7678;50.058;8.306;2023-06-14T11:29:22;2.57;;;1.90;;
15155;SDS011;7678;50.058;8.306;2023-06-14T11:31:53;3.87;;;1.60;;
15155;SDS011;7678;50.058;8.306;2023-06-14T11:34:22;2.63;;;1.73;;
15155;SDS011;7678;50.058;8.306;2023-06-14T11:36:50;2.60;;;1.80;;
15155;SDS011;7678;50.058;8.306;2023-06-14T11:39:21;2.77;;;1.60;;
15155;SDS011;7678;50.058;8.306;2023-06-14T11:41:55;3.40;;;1.93;;
15155;SDS011;7678;50.058;8.306;2023-06-14T11:44:27;3.57;;;1.63;;
15155;SDS011;7678;50.058;8.306;2023-06-14T11:46:56;4.18;;;1.90;;
15155;SDS011;7678;50.058;8.306;2023-06-14T11:49:24;2.53;;;1.75;;
15155;SDS011;7678;50.058;8.306;2023-06-14T11:51:53;3.03;;;1.88;;
15155;SDS011;7678;50.058;8.306;2023-06-14T11:54:22;3.13;;;1.88;;
15155;SDS011;7678;50.058;8.306;2023-06-14T11:56:50;2.07;;;1.70;;
15155;SDS011;7678;50.058;8.306;2023-06-14T11:59:19;3.17;;;1.80;;
15155;SDS011;7678;50.058;8.306;2023-06-14T12:01:48;3.50;;;1.95;;
15155;SDS011;7678;50.058;8.306;2023-06-14T12:04:22;4.63;;;1.77;;
15155;SDS011;7678;50.058;8.306;2023-06-14T12:06:51;2.25;;;1.77;;
15155;SDS011;7678;50.058;8.306;2023-06-14T12:09:21;1.98;;;1.63;;
15155;SDS011;7678;50.058;8.306;2023-06-14T12:11:59;3.50;;;1.70;;
15155;SDS011;7678;50.058;8.306;2023-06-14T12:14:30;1.70;;;1.60;;
15155;SDS011;7678;50.058;8.306;2023-06-14T12:17:03;2.40;;;1.60;;
15155;SDS011;7678;50.058;8.306;2023-06-14T12:19:33;1.80;;;1.70;;
15155;SDS011;7678;50.058;8.306;2023-06-14T12:22:09;2.80;;;1.80;;
15155;SDS011;7678;50.058;8.306;2023-06-14T12:24:38;4.00;;;1.80;;
15155;SDS011;7678;50.058;8.306;2023-06-14T12:27:09;3.30;;;2.00;;
15155;SDS011;7678;50.058;8.306;2023-06-14T12:29:43;14.93;;;2.37;;
15155;SDS011;7678;50.058;8.306;2023-06-14T12:32:11;2.30;;;2.00;;
15155;SDS011;7678;50.058;8.306;2023-06-14T12:34:39;3.83;;;1.90;;
15155;SDS011;7678;50.058;8.306;2023-06-14T12:37:07;7.53;;;1.87;;
15155;SDS011;7678;50.058;8.306;2023-06-14T12:39:36;3.10;;;1.90;;
15155;SDS011;7678;50.058;8.306;2023-06-14T12:42:05;4.27;;;1.80;;
15155;SDS011;7678;50.058;8.306;2023-06-14T12:44:34;2.40;;;1.83;;
15155;SDS011;7678;50.058;8.306;2023-06-14T12:47:08;3.30;;;2.10;;
15155;SDS011;7678;50.058;8.306;2023-06-14T12:49:36;3.73;;;1.80;;
15155;SDS011;7678;50.058;8.306;2023-06-14T12:52:04;4.43;;;1.87;;
15155;SDS011;7678;50.058;8.306;2023-06-14T12:54:33;4.50;;;1.70;;
15155;SDS011;7678;50.058;8.306;2023-06-14T12:57:06;3.70;;;1.63;;
15155;SDS011;7678;50.058;8.306;2023-06-14T12:59:36;1.90;;;1.70;;
15155;SDS011;7678;50.058;8.306;2023-06-14T13:02:15;3.30;;;2.07;;
15155;SDS011;7678;50.058;8.306;2023-06-14T13:04:44;3.80;;;1.60;;
15155;SDS011;7678;50.058;8.306;2023-06-14T13:07:12;2.20;;;1.83;;
15155;SDS011;7678;50.058;8.306;2023-06-14T13:09:41;2.90;;;1.90;;
15155;SDS011;7678;50.058;8.306;2023-06-14T13:12:09;2.93;;;1.70;;
15155;SDS011;7678;50.058;8.306;2023-06-14T13:14:38;2.57;;;1.70;;
15155;SDS011;7678;50.058;8.306;2023-06-14T13:17:07;2.93;;;1.70;;
15155;SDS011;7678;50.058;8.306;2023-06-14T13:19:37;2.10;;;1.60;;
15155;SDS011;7678;50.058;8.306;2023-06-14T13:22:05;3.63;;;1.80;;
15155;SDS011;7678;50.058;8.306;2023-06-14T13:24:34;3.73;;;1.80;;
15155;SDS011;7678;50.058;8.306;2023-06-14T13:27:02;3.87;;;1.80;;
15155;SDS011;7678;50.058;8.306;2023-06-14T13:29:31;1.90;;;1.80;;
15155;SDS011;7678;50.058;8.306;2023-06-14T13:32:02;5.40;;;1.90;;
15155;SDS011;7678;50.058;8.306;2023-06-14T13:34:31;3.83;;;2.30;;
15155;SDS011;7678;50.058;8.306;2023-06-14T13:37:00;6.80;;;1.80;;
15155;SDS011;7678;50.058;8.306;2023-06-14T13:39:28;2.83;;;1.90;;
15155;SDS011;7678;50.058;8.306;2023-06-14T13:41:56;2.80;;;2.40;;
15155;SDS011;7678;50.058;8.306;2023-06-14T13:44:24;4.37;;;2.20;;
15155;SDS011;7678;50.058;8.306;2023-06-14T13:46:52;7.70;;;2.30;;
15155;SDS011;7678;50.058;8.306;2023-06-14T13:49:20;3.67;;;1.98;;
15155;SDS011;7678;50.058;8.306;2023-06-14T13:51:48;3.33;;;2.05;;
15155;SDS011;7678;50.058;8.306;2023-06-14T13:54:19;3.70;;;1.98;;
15155;SDS011;7678;50.058;8.306;2023-06-14T13:56:47;4.68;;;2.08;;
15155;SDS011;7678;50.058;8.306;2023-06-14T13:59:15;2.67;;;1.80;;
15155;SDS011;7678;50.058;8.306;2023-06-14T14:01:43;3.22;;;1.90;;
15155;SDS011;7678;50.058;8.306;2023-06-14T14:04:11;4.60;;;2.20;;
15155;SDS011;7678;50.058;8.306;2023-06-14T14:06:40;2.67;;;1.95;;
15155;SDS011;7678;50.058;8.306;2023-06-14T14:09:08;3.97;;;2.00;;
15155;SDS011;7678;50.058;8.306;2023-06-14T14:11:42;2.87;;;2.30;;
15155;SDS011;7678;50.058;8.306;2023-06-14T14:14:10;2.97;;;2.23;;
15155;SDS011;7678;50.058;8.306;2023-06-14T14:16:38;2.27;;;1.80;;
15155;SDS011;7678;50.058;8.306;2023-06-14T14:19:07;2.30;;;2.10;;
15155;SDS011;7678;50.058;8.306;2023-06-14T14:21:36;4.77;;;1.90;;
15155;SDS011;7678;50.058;8.306;2023-06-14T14:24:05;3.97;;;2.40;;
15155;SDS011;7678;50.058;8.306;2023-06-14T14:26:34;3.20;;;2.27;;
15155;SDS011;7678;50.058;8.306;2023-06-14T14:29:03;3.87;;;2.00;;
15155;SDS011;7678;50.058;8.306;2023-06-14T14:31:31;4.33;;;2.20;;
15155;SDS011;7678;50.058;8.306;2023-06-14T14:34:00;2.47;;;2.07;;
15155;SDS011;7678;50.058;8.306;2023-06-14T14:36:32;4.07;;;2.10;;
15155;SDS011;7678;50.058;8.306;2023-06-14T14:39:03;2.57;;;2.07;;
15155;SDS011;7678;50.058;8.306;2023-06-14T14:41:33;4.00;;;2.00;;
15155;SDS011;7678;50.058;8.306;2023-06-14T14:44:01;2.53;;;2.03;;
15155;SDS011;7678;50.058;8.306;2023-06-14T14:46:31;6.27;;;1.90;;
15155;SDS011;7678;50.058;8.306;2023-06-14T14:48:59;2.20;;;2.00;;
15155;SDS011;7678;50.058;8.306;2023-06-14T14:51:27;2.75;;;2.15;;
15155;SDS011;7678;50.058;8.306;2023-06-14T14:53:58;3.45;;;1.90;;
15155;SDS011;7678;50.058;8.306;2023-06-14T14:56:26;2.45;;;1.98;;
15155;SDS011;7678;50.058;8.306;2023-06-14T14:58:55;2.03;;;1.80;;
15155;SDS011;7678;50.058;8.306;2023-06-14T15:01:24;2.67;;;1.90;;
15155;SDS011;7678;50.058;8.306;2023-06-14T15:03:53;3.95;;;1.73;;
15155;SDS011;7678;50.058;8.306;2023-06-14T15:06:25;6.13;;;1.85;;
15155;SDS011;7678;50.058;8.306;2023-06-14T15:08:56;2.20;;;1.90;;
15155;SDS011;7678;50.058;8.306;2023-06-14T15:11:24;1.80;;;1.70;;
15155;SDS011;7678;50.058;8.306;2023-06-14T15:13:53;1.98;;;1.80;;
15155;SDS011;7678;50.058;8.306;2023-06-14T15:16:22;2.57;;;1.80;;
15155;SDS011;7678;50.058;8.306;2023-06-14T15:18:51;3.13;;;2.60;;
15155;SDS011;7678;50.058;8.306;2023-06-14T15:21:20;3.33;;;2.50;;
15155;SDS011;7678;50.058;8.306;2023-06-14T15:23:49;3.57;;;2.33;;
15155;SDS011;7678;50.058;8.306;2023-06-14T15:26:19;2.30;;;1.80;;
15155;SDS011;7678;50.058;8.306;2023-06-14T15:28:50;3.07;;;1.63;;
15155;SDS011;7678;50.058;8.306;2023-06-14T15:31:18;3.13;;;2.33;;